首页
METAR-TAF:

METAR-TAF

机场 :

勒阿弗尔, 法国

纬度: 49-31N, 经度: 000-04E, 海拔: 100米

当前天气观测

该预报发布于26分钟前的21:00 UTC
风速18节,风向西
温度 12°C
湿度 82%
气压 1005 hPa
能见度10公里或以上

METAR: LFOH 062100Z AUTO 26018KT 9999 BKN013/// BKN019/// OVC024/// ///TCU 12/09 Q1005

时间: 23:26 (21:26 UTC)


TAF: 丢失

超过4000个机场的气象观测和天气预报(METAR&TAF报告)。

可查询的气象台以黄色和红色小点在地图上表示。

将鼠标移到小点上方,可查看气象台名称。

然后点击查看天气观测和预报。

如需切换地图:点击带黑十字的绿色按钮放大地图;点击带横线的绿色按钮缩小地图;或者点击绿色箭头查看邻近地区的地图。


METAR-TAF: